Time;durP1;ratioP1;P1;durP2;ratioP2;P2;SDS_P1;SDS_P2;PMS_P1;PMS_P2;Temp;Humidity;BMP_temperature;BMP_pressure;BME280_temperature;BME280_humidity;BME280_pressure;Samples;Min_cycle;Max_cycle;Signal;HPM_P1;HPM_P2
2021/07/20 00:01:00;;;;;;;23.58;12.68;;;18.90;99.90;;;;;;5098413;28;20092;-84
2021/07/20 00:03:25;;;;;;;18.92;12.15;;;18.80;99.90;;;;;;5109871;28;20078;-84
2021/07/20 00:05:51;;;;;;;22.35;12.43;;;18.80;99.90;;;;;;5076058;28;20024;-84
2021/07/20 00:08:17;;;;;;;18.75;12.30;;;18.80;99.90;;;;;;5080514;28;20032;-84
2021/07/20 00:10:59;;;;;;;23.15;12.88;;;18.80;99.90;;;;;;5096495;28;20026;-84
2021/07/20 00:13:25;;;;;;;20.08;11.82;;;18.70;99.90;;;;;;5086461;28;20024;-85
2021/07/20 00:15:55;;;;;;;20.88;13.55;;;18.60;99.90;;;;;;5076123;28;20080;-84
2021/07/20 00:18:25;;;;;;;22.13;12.55;;;18.60;99.90;;;;;;5075512;28;20070;-84
2021/07/20 00:20:51;;;;;;;18.67;11.82;;;18.50;99.90;;;;;;5109657;22;20383;-81
2021/07/20 00:23:19;;;;;;;19.20;11.98;;;18.50;99.90;;;;;;5116526;28;20051;-80
2021/07/20 00:25:47;;;;;;;20.52;11.55;;;18.40;99.90;;;;;;5116830;28;20479;-80
2021/07/20 00:28:13;;;;;;;17.70;12.05;;;18.40;99.90;;;;;;5115568;28;20043;-80
2021/07/20 00:30:39;;;;;;;21.10;12.48;;;18.30;99.90;;;;;;5116400;28;20491;-80
2021/07/20 00:33:05;;;;;;;19.52;11.38;;;18.20;99.90;;;;;;5107467;28;20027;-81
2021/07/20 00:35:30;;;;;;;15.40;10.35;;;18.30;99.90;;;;;;5095255;28;20036;-81
2021/07/20 00:37:56;;;;;;;16.95;10.75;;;18.30;99.90;;;;;;5088086;28;20126;-80
2021/07/20 00:40:22;;;;;;;18.65;11.32;;;18.20;99.90;;;;;;5115662;28;20102;-81
2021/07/20 00:42:48;;;;;;;18.48;10.75;;;18.20;99.90;;;;;;5109958;28;20024;-80
2021/07/20 00:45:17;;;;;;;17.83;10.98;;;18.20;99.90;;;;;;5095547;28;20023;-81
2021/07/20 00:47:43;;;;;;;19.08;11.10;;;18.20;99.90;;;;;;5094266;28;20021;-81
2021/07/20 00:50:11;;;;;;;18.48;11.70;;;18.10;99.90;;;;;;5096756;28;20069;-81
2021/07/20 00:52:38;;;;;;;16.85;10.23;;;18.20;99.90;;;;;;5093560;28;20058;-81
2021/07/20 00:55:05;;;;;;;20.13;11.80;;;18.10;99.90;;;;;;5106271;28;20028;-80
2021/07/20 00:57:31;;;;;;;18.80;11.15;;;18.20;99.90;;;;;;5115253;28;20058;-81
2021/07/20 00:59:58;;;;;;;20.70;12.07;;;18.20;99.90;;;;;;5104312;28;20059;-80
2021/07/20 01:02:23;;;;;;;18.98;11.30;;;18.20;99.90;;;;;;5094581;28;20340;-81
2021/07/20 01:04:49;;;;;;;17.75;10.85;;;18.20;99.90;;;;;;5094987;28;20020;-80
2021/07/20 01:07:18;;;;;;;19.17;11.63;;;18.20;99.90;;;;;;5095067;28;20035;-80
2021/07/20 01:09:44;;;;;;;19.55;11.73;;;18.20;99.90;;;;;;5094510;28;20062;-80
2021/07/20 01:12:11;;;;;;;17.60;10.90;;;18.30;99.90;;;;;;5107176;28;20020;-80
2021/07/20 01:14:37;;;;;;;20.77;11.48;;;18.30;99.90;;;;;;5114930;28;20024;-80
2021/07/20 01:17:04;;;;;;;23.00;11.70;;;18.20;99.90;;;;;;5101174;28;20028;-81
2021/07/20 01:19:33;;;;;;;18.25;11.23;;;18.30;99.90;;;;;;5094312;28;20070;-80
2021/07/20 01:22:01;;;;;;;19.33;11.70;;;18.30;99.90;;;;;;5076090;28;20112;-81
2021/07/20 01:24:27;;;;;;;16.80;10.98;;;18.30;99.90;;;;;;5094246;28;20074;-80
2021/07/20 01:26:53;;;;;;;18.08;11.52;;;18.20;99.90;;;;;;5093818;28;20028;-80
2021/07/20 01:29:21;;;;;;;24.25;11.65;;;18.10;99.90;;;;;;5087304;28;20060;-80
2021/07/20 01:31:48;;;;;;;17.20;10.48;;;18.20;99.90;;;;;;5093408;28;20110;-80
2021/07/20 01:34:15;;;;;;;18.25;11.20;;;18.10;99.90;;;;;;5095507;28;20023;-80
2021/07/20 01:36:41;;;;;;;18.35;11.90;;;18.20;99.90;;;;;;5106144;28;20031;-80
2021/07/20 01:39:10;;;;;;;18.48;11.13;;;18.10;99.90;;;;;;5109673;28;20031;-80
2021/07/20 01:41:40;;;;;;;20.25;10.95;;;18.10;99.90;;;;;;5096215;28;20020;-80
2021/07/20 01:44:10;;;;;;;18.80;11.70;;;18.10;99.90;;;;;;5114915;28;20610;-80
2021/07/20 01:46:38;;;;;;;19.65;11.15;;;18.00;99.90;;;;;;5098133;28;20024;-81
2021/07/20 01:49:07;;;;;;;18.05;11.23;;;18.00;99.90;;;;;;5094338;28;20039;-80
2021/07/20 01:51:34;;;;;;;19.20;11.07;;;18.00;99.90;;;;;;5075504;28;20035;-80
2021/07/20 01:54:00;;;;;;;16.38;10.60;;;17.90;99.90;;;;;;5091895;28;20432;-80
2021/07/20 01:56:26;;;;;;;17.95;10.85;;;17.90;99.90;;;;;;5110615;28;20031;-80
2021/07/20 01:58:52;;;;;;;19.20;10.88;;;17.90;99.90;;;;;;5110954;28;20023;-80
2021/07/20 02:01:25;;;;;;;17.90;10.38;;;17.90;99.90;;;;;;5094916;28;20024;-80
2021/07/20 02:09:16;;;;;;;18.17;10.85;;;17.80;99.90;;;;;;5094062;28;20046;-80
2021/07/20 02:11:44;;;;;;;22.70;11.35;;;17.80;99.90;;;;;;5111575;28;20110;-80
2021/07/20 02:14:12;;;;;;;18.38;10.93;;;17.80;99.90;;;;;;5117356;28;20047;-81
2021/07/20 02:16:42;;;;;;;17.15;10.25;;;17.80;99.90;;;;;;5091714;28;20035;-80
2021/07/20 02:19:13;;;;;;;17.35;11.27;;;17.80;99.90;;;;;;5105834;28;20132;-80
2021/07/20 02:21:44;;;;;;;17.95;11.20;;;17.80;99.90;;;;;;5099781;28;20062;-81
2021/07/20 02:24:11;;;;;;;16.98;10.38;;;17.70;99.90;;;;;;5099040;28;20165;-80
2021/07/20 02:26:37;;;;;;;16.50;10.27;;;17.70;99.90;;;;;;5096187;28;20027;-80
2021/07/20 02:29:03;;;;;;;18.10;11.10;;;17.70;99.90;;;;;;5107479;28;20032;-80
2021/07/20 02:31:30;;;;;;;17.42;10.32;;;17.70;99.90;;;;;;5116331;28;20024;-81
2021/07/20 02:33:56;;;;;;;18.02;10.70;;;17.60;99.90;;;;;;5117757;28;20020;-80
2021/07/20 02:36:22;;;;;;;17.48;11.63;;;17.60;99.90;;;;;;5088369;28;20024;-80
2021/07/20 02:38:49;;;;;;;16.77;10.68;;;17.50;99.90;;;;;;5096535;28;20088;-80
2021/07/20 02:41:17;;;;;;;17.77;10.45;;;17.40;99.90;;;;;;5096894;28;20024;-80
2021/07/20 02:43:45;;;;;;;17.48;11.40;;;17.30;99.90;;;;;;5079789;28;20107;-80
2021/07/20 02:46:12;;;;;;;19.10;11.00;;;17.30;99.90;;;;;;5096777;28;20031;-80
2021/07/20 02:48:39;;;;;;;20.05;11.88;;;17.10;99.90;;;;;;5097182;28;20031;-81
2021/07/20 02:51:08;;;;;;;20.35;11.02;;;17.10;99.90;;;;;;5078947;28;20035;-81
2021/07/20 02:53:38;;;;;;;20.08;12.30;;;17.00;99.90;;;;;;5101599;28;20016;-81
2021/07/20 02:56:07;;;;;;;18.80;11.40;;;17.10;99.90;;;;;;5084461;28;20101;-80
2021/07/20 02:58:34;;;;;;;18.33;10.82;;;17.00;99.90;;;;;;5118513;28;20023;-81
2021/07/20 03:01:01;;;;;;;17.27;10.75;;;16.90;99.90;;;;;;5095460;28;20020;-81
2021/07/20 03:03:26;;;;;;;19.20;11.80;;;16.80;99.90;;;;;;5078794;28;20070;-81
2021/07/20 03:05:54;;;;;;;20.63;11.25;;;16.80;99.90;;;;;;5079399;28;20024;-81
2021/07/20 03:08:24;;;;;;;19.45;11.05;;;16.80;99.90;;;;;;5096757;28;20012;-81
2021/07/20 03:10:52;;;;;;;17.35;10.80;;;16.80;99.90;;;;;;5100318;28;20024;-80
2021/07/20 03:13:19;;;;;;;17.05;10.40;;;16.80;99.90;;;;;;5097538;28;20024;-80
2021/07/20 03:15:44;;;;;;;19.75;11.07;;;16.80;99.90;;;;;;5097287;28;20024;-81
2021/07/20 03:18:12;;;;;;;17.45;10.98;;;16.90;99.90;;;;;;5108371;28;20369;-81
2021/07/20 03:20:40;;;;;;;18.00;10.93;;;16.80;99.90;;;;;;5093836;28;20389;-81
2021/07/20 03:23:07;;;;;;;18.08;10.93;;;16.90;99.90;;;;;;5095259;28;20040;-81
2021/07/20 03:25:34;;;;;;;18.55;11.40;;;17.00;99.90;;;;;;5077860;28;20028;-81
2021/07/20 03:28:01;;;;;;;19.98;10.35;;;17.00;99.90;;;;;;5097026;28;20027;-81
2021/07/20 03:30:29;;;;;;;17.38;11.02;;;17.00;99.90;;;;;;5108617;28;20074;-81
2021/07/20 03:32:55;;;;;;;18.27;11.30;;;17.00;99.90;;;;;;5096477;28;20028;-81
2021/07/20 03:35:22;;;;;;;15.68;9.77;;;17.00;99.90;;;;;;5096531;28;20104;-80
2021/07/20 03:37:48;;;;;;;18.67;10.32;;;17.00;99.90;;;;;;5078156;28;20050;-80
2021/07/20 03:40:15;;;;;;;17.45;10.68;;;16.90;99.90;;;;;;5080890;28;20054;-80
2021/07/20 03:42:42;;;;;;;18.48;10.13;;;16.90;99.90;;;;;;5078208;28;20020;-81
2021/07/20 03:45:09;;;;;;;19.25;11.18;;;16.80;99.90;;;;;;5099836;28;20085;-81
2021/07/20 03:47:41;;;;;;;21.38;10.88;;;16.80;99.90;;;;;;5098585;28;20409;-81
2021/07/20 03:50:07;;;;;;;20.10;10.75;;;16.70;99.90;;;;;;5098344;28;20046;-81
2021/07/20 03:52:34;;;;;;;16.45;10.23;;;16.70;99.90;;;;;;5078023;28;20115;-79
2021/07/20 03:55:00;;;;;;;21.17;10.27;;;16.60;99.90;;;;;;5096225;28;20032;-80
2021/07/20 03:57:27;;;;;;;19.08;10.80;;;16.60;99.90;;;;;;5085201;28;20032;-80
2021/07/20 03:59:58;;;;;;;19.33;11.05;;;16.60;99.90;;;;;;5105589;28;20051;-80
2021/07/20 04:02:28;;;;;;;19.48;10.23;;;16.60;99.90;;;;;;5108002;28;20440;-80
2021/07/20 04:04:57;;;;;;;18.10;10.13;;;16.50;99.90;;;;;;5116616;28;20112;-80
2021/07/20 04:07:23;;;;;;;16.73;10.45;;;16.50;99.90;;;;;;5106481;28;20020;-80
2021/07/20 04:09:49;;;;;;;16.08;9.95;;;16.40;99.90;;;;;;5105812;28;20084;-81
2021/07/20 04:12:16;;;;;;;17.77;10.27;;;16.40;99.90;;;;;;5095998;28;20032;-81
2021/07/20 04:14:49;;;;;;;19.38;10.65;;;16.50;99.90;;;;;;5115340;28;20083;-80
2021/07/20 04:17:15;;;;;;;20.13;10.40;;;16.40;99.90;;;;;;5103069;28;20050;-81
2021/07/20 04:19:42;;;;;;;19.25;9.98;;;16.40;99.90;;;;;;5125648;27;20055;-82
2021/07/20 04:22:09;;;;;;;18.35;10.38;;;16.40;99.90;;;;;;5115798;28;20063;-80
2021/07/20 04:24:35;;;;;;;18.50;9.38;;;16.40;99.90;;;;;;5106243;28;20036;-80
2021/07/20 04:27:03;;;;;;;19.95;10.50;;;16.40;99.90;;;;;;5117396;28;20425;-79
2021/07/20 04:29:29;;;;;;;18.13;10.30;;;16.40;99.90;;;;;;5113313;28;20039;-81
2021/07/20 04:32:06;;;;;;;18.17;9.82;;;16.40;99.90;;;;;;5099608;28;20130;-80
2021/07/20 04:34:33;;;;;;;17.55;9.50;;;16.40;99.90;;;;;;5115391;28;20038;-80
2021/07/20 04:37:01;;;;;;;17.30;9.80;;;16.40;99.90;;;;;;5109249;28;20031;-80
2021/07/20 04:39:28;;;;;;;17.15;10.25;;;16.40;99.90;;;;;;5105677;28;20111;-81
2021/07/20 04:41:54;;;;;;;16.88;9.45;;;16.40;99.90;;;;;;5100388;28;20110;-81
2021/07/20 04:44:20;;;;;;;18.80;9.85;;;16.50;99.90;;;;;;5097083;28;20558;-81
2021/07/20 04:46:47;;;;;;;15.05;9.32;;;16.60;99.90;;;;;;5094616;28;20117;-81
2021/07/20 04:49:14;;;;;;;16.50;9.35;;;16.60;99.90;;;;;;5093626;28;20030;-80
2021/07/20 04:51:41;;;;;;;16.75;9.88;;;16.60;99.90;;;;;;5092413;28;20067;-81
2021/07/20 04:54:08;;;;;;;15.75;9.27;;;16.60;99.90;;;;;;5105852;27;20028;-83
2021/07/20 04:56:34;;;;;;;17.55;10.00;;;16.70;99.90;;;;;;5108930;28;20443;-82
2021/07/20 04:59:00;;;;;;;20.17;9.73;;;16.70;99.90;;;;;;5110663;28;20046;-82
2021/07/20 05:01:25;;;;;;;16.63;9.13;;;16.70;99.90;;;;;;5094039;28;20032;-82
2021/07/20 05:03:56;;;;;;;17.63;9.35;;;16.70;99.90;;;;;;5105366;28;20071;-82
2021/07/20 05:06:22;;;;;;;15.88;9.00;;;16.80;99.90;;;;;;5114140;28;20023;-82
2021/07/20 05:08:49;;;;;;;15.35;8.85;;;16.80;99.90;;;;;;5116254;28;20039;-82
2021/07/20 05:11:20;;;;;;;16.98;9.98;;;16.90;99.90;;;;;;5099970;28;20024;-81
2021/07/20 05:13:47;;;;;;;18.48;10.23;;;17.00;99.90;;;;;;5110842;28;20025;-82
2021/07/20 05:16:13;;;;;;;15.18;9.02;;;17.00;99.90;;;;;;5090631;28;20020;-82
2021/07/20 05:18:39;;;;;;;17.42;9.27;;;17.10;99.90;;;;;;5110276;28;20053;-82
2021/07/20 05:21:05;;;;;;;14.52;8.88;;;17.30;99.90;;;;;;5105623;28;20501;-83
2021/07/20 05:23:33;;;;;;;16.25;9.32;;;17.30;99.90;;;;;;5107880;28;20055;-82
2021/07/20 05:26:00;;;;;;;19.38;9.45;;;17.40;99.90;;;;;;5110430;28;20429;-83
2021/07/20 05:28:28;;;;;;;17.90;9.50;;;17.50;99.90;;;;;;5120816;28;20103;-82
2021/07/20 05:30:58;;;;;;;15.45;8.93;;;17.50;99.90;;;;;;5096153;28;20087;-81
2021/07/20 05:33:25;;;;;;;16.85;9.45;;;17.50;99.90;;;;;;5117346;28;20035;-82
2021/07/20 05:35:55;;;;;;;14.38;8.75;;;17.40;99.90;;;;;;5120188;28;20471;-82
2021/07/20 05:38:22;;;;;;;18.63;9.30;;;17.50;99.90;;;;;;5108135;28;20039;-82
2021/07/20 05:40:49;;;;;;;15.80;9.32;;;17.60;99.90;;;;;;5101871;28;20028;-82
2021/07/20 05:43:15;;;;;;;20.77;9.10;;;17.50;99.90;;;;;;5101053;28;20019;-81
2021/07/20 05:45:42;;;;;;;15.05;9.13;;;17.60;99.90;;;;;;5092893;28;20027;-82
2021/07/20 05:48:08;;;;;;;16.95;9.38;;;17.70;99.90;;;;;;5095811;28;20075;-82
2021/07/20 05:50:36;;;;;;;18.27;9.98;;;17.70;99.90;;;;;;5096825;28;20028;-81
2021/07/20 05:53:02;;;;;;;16.60;9.07;;;17.60;99.90;;;;;;5098106;28;20024;-82
2021/07/20 05:55:29;;;;;;;16.42;9.07;;;17.80;99.90;;;;;;5098925;28;20484;-81
2021/07/20 05:57:57;;;;;;;17.52;9.88;;;17.80;99.90;;;;;;5080925;28;20020;-82
2021/07/20 06:00:25;;;;;;;14.98;9.88;;;17.90;99.90;;;;;;5105028;28;20039;-80
2021/07/20 06:02:52;;;;;;;17.88;9.65;;;17.90;99.90;;;;;;5109228;28;20020;-81
2021/07/20 06:05:20;;;;;;;16.48;9.38;;;18.00;99.90;;;;;;5118551;28;20019;-80
2021/07/20 06:07:46;;;;;;;15.68;9.30;;;18.10;99.90;;;;;;5119890;28;20118;-80
2021/07/20 06:10:17;;;;;;;13.95;7.93;;;18.10;99.90;;;;;;5112422;28;20542;-81
2021/07/20 06:12:43;;;;;;;15.15;8.02;;;18.20;99.90;;;;;;5082603;28;20042;-81
2021/07/20 06:15:09;;;;;;;14.13;8.63;;;18.30;99.90;;;;;;5107836;28;20032;-81
2021/07/20 06:17:34;;;;;;;16.23;8.43;;;18.40;99.90;;;;;;5117564;28;20035;-81
2021/07/20 06:20:01;;;;;;;15.60;8.13;;;18.40;99.90;;;;;;5110962;28;20032;-81
2021/07/20 06:22:34;;;;;;;20.05;8.32;;;18.50;99.90;;;;;;5102239;28;20085;-81
2021/07/20 06:25:01;;;;;;;17.52;9.13;;;18.50;99.90;;;;;;5098812;28;20542;-81
2021/07/20 06:27:28;;;;;;;14.80;8.30;;;18.50;99.90;;;;;;5118036;28;20038;-80
2021/07/20 06:29:56;;;;;;;16.00;8.68;;;18.60;99.90;;;;;;5107011;28;20040;-81
2021/07/20 06:32:23;;;;;;;13.82;8.10;;;18.70;99.90;;;;;;5115742;28;20019;-79
2021/07/20 06:34:49;;;;;;;16.00;8.43;;;18.80;99.90;;;;;;5116329;28;20020;-81
2021/07/20 06:37:16;;;;;;;14.50;8.02;;;19.00;99.90;;;;;;5116777;28;20015;-81
2021/07/20 06:39:43;;;;;;;16.30;8.23;;;19.10;99.90;;;;;;5102567;28;20020;-81
2021/07/20 06:42:10;;;;;;;16.08;7.40;;;19.20;99.90;;;;;;5118294;28;20058;-81
2021/07/20 06:44:37;;;;;;;16.63;8.13;;;19.20;99.90;;;;;;5117952;28;20027;-82
2021/07/20 06:47:04;;;;;;;17.33;8.23;;;19.30;99.90;;;;;;5108009;28;20467;-81
2021/07/20 06:49:30;;;;;;;17.08;8.38;;;19.20;99.90;;;;;;5101362;28;20055;-81
2021/07/20 06:51:56;;;;;;;15.57;8.48;;;19.30;99.90;;;;;;5107483;28;20049;-81
2021/07/20 06:54:22;;;;;;;16.42;8.20;;;19.30;99.90;;;;;;5094090;28;20102;-81
2021/07/20 06:56:54;;;;;;;16.05;7.93;;;19.30;99.90;;;;;;5116446;28;20386;-81
2021/07/20 06:59:23;;;;;;;13.73;8.70;;;19.40;99.90;;;;;;5099712;22;20882;-79
2021/07/20 07:01:49;;;;;;;18.65;8.82;;;19.50;99.90;;;;;;5072980;28;20024;-80
2021/07/20 07:04:45;;;;;;;17.70;8.43;;;19.50;99.90;;;;;;5087997;28;20495;-80
2021/07/20 07:07:12;;;;;;;14.80;8.23;;;19.70;99.90;;;;;;5090510;28;20028;-81
2021/07/20 07:09:39;;;;;;;14.45;7.57;;;19.80;99.90;;;;;;5076320;28;20543;-81
2021/07/20 07:12:06;;;;;;;16.35;8.27;;;19.80;99.90;;;;;;5103322;28;20517;-81
2021/07/20 07:14:32;;;;;;;14.27;8.07;;;19.90;99.90;;;;;;5099789;28;20395;-81
2021/07/20 07:17:00;;;;;;;15.15;8.43;;;20.00;99.90;;;;;;5096956;28;20105;-81
2021/07/20 07:19:26;;;;;;;16.63;8.27;;;20.00;99.90;;;;;;5078651;28;20032;-81
2021/07/20 07:21:52;;;;;;;17.13;8.55;;;20.10;99.90;;;;;;5096584;28;20023;-81
2021/07/20 07:24:20;;;;;;;19.75;7.90;;;20.20;99.90;;;;;;5106292;28;20023;-80
2021/07/20 07:26:48;;;;;;;16.48;8.45;;;20.10;99.90;;;;;;5095604;28;20026;-80
2021/07/20 07:29:15;;;;;;;13.23;7.72;;;20.20;99.90;;;;;;5104132;28;20015;-80
2021/07/20 07:31:44;;;;;;;14.60;7.70;;;20.30;99.90;;;;;;5087420;28;20071;-80
2021/07/20 07:34:10;;;;;;;17.10;7.90;;;20.40;99.90;;;;;;5072253;28;20028;-80
2021/07/20 07:36:37;;;;;;;16.02;7.65;;;20.50;99.90;;;;;;5076799;28;20031;-80
2021/07/20 07:39:05;;;;;;;18.20;8.63;;;20.60;99.90;;;;;;5076688;28;20032;-80
2021/07/20 07:41:34;;;;;;;14.05;7.75;;;20.60;99.90;;;;;;5112086;28;20371;-80
2021/07/20 07:44:02;;;;;;;15.93;8.10;;;20.70;99.90;;;;;;5111865;28;20022;-81
2021/07/20 07:46:30;;;;;;;16.42;7.95;;;20.80;99.90;;;;;;5095910;28;20056;-80
2021/07/20 07:48:57;;;;;;;15.13;7.75;;;20.80;99.90;;;;;;5093829;28;20076;-80
2021/07/20 07:51:23;;;;;;;14.82;7.32;;;20.60;99.90;;;;;;5095507;28;20017;-80
2021/07/20 07:53:49;;;;;;;17.85;8.38;;;20.50;99.90;;;;;;5087774;28;20042;-80
2021/07/20 07:56:15;;;;;;;12.48;7.85;;;20.20;99.90;;;;;;5088271;28;20138;-80
2021/07/20 07:58:43;;;;;;;14.23;7.82;;;20.50;99.90;;;;;;5112755;28;20031;-81
2021/07/20 08:01:10;;;;;;;16.58;8.00;;;20.50;99.90;;;;;;5096064;28;20028;-80
2021/07/20 08:03:43;;;;;;;14.98;7.47;;;20.60;99.90;;;;;;5098936;28;20092;-80
2021/07/20 08:06:10;;;;;;;14.60;8.18;;;20.80;99.90;;;;;;5077113;28;20107;-81
2021/07/20 08:08:39;;;;;;;13.18;7.72;;;20.90;99.90;;;;;;5094583;28;20051;-80
2021/07/20 08:11:12;;;;;;;12.82;7.32;;;21.10;99.90;;;;;;5102090;28;20019;-81
2021/07/20 08:13:39;;;;;;;13.55;8.02;;;21.20;99.90;;;;;;5090364;28;20019;-81
2021/07/20 08:16:07;;;;;;;12.38;7.57;;;21.30;99.90;;;;;;5097147;28;20506;-81
2021/07/20 08:18:33;;;;;;;12.20;6.65;;;21.40;99.90;;;;;;5091047;28;20084;-81
2021/07/20 08:21:02;;;;;;;14.15;7.25;;;21.50;99.90;;;;;;5094123;28;20017;-81
2021/07/20 08:23:30;;;;;;;11.93;6.95;;;21.60;99.90;;;;;;5095043;28;20024;-81
2021/07/20 08:25:59;;;;;;;13.73;7.30;;;21.70;99.90;;;;;;5077441;28;20475;-81
2021/07/20 08:28:37;;;;;;;13.90;7.72;;;21.50;99.90;;;;;;5102098;28;20387;-84
2021/07/20 08:31:05;;;;;;;12.48;6.30;;;21.60;99.30;;;;;;5095976;28;20024;-80
2021/07/20 08:33:33;;;;;;;12.18;7.13;;;21.80;99.50;;;;;;5094330;28;20034;-80
2021/07/20 08:36:03;;;;;;;16.38;7.00;;;22.00;99.10;;;;;;5077821;28;20028;-80
2021/07/20 08:38:34;;;;;;;12.48;6.47;;;22.10;98.90;;;;;;5095452;28;20032;-80
2021/07/20 08:41:09;;;;;;;13.27;7.38;;;22.20;98.20;;;;;;5093477;28;20036;-80
2021/07/20 08:43:59;;;;;;;12.57;6.68;;;22.30;98.40;;;;;;5115448;28;20065;-80
2021/07/20 08:46:40;;;;;;;12.85;6.88;;;22.30;99.10;;;;;;5094380;28;20039;-83
2021/07/20 08:49:26;;;;;;;10.57;6.43;;;22.40;98.10;;;;;;5062002;28;20047;-83
2021/07/20 08:52:13;;;;;;;10.85;6.32;;;22.30;98.10;;;;;;5070492;28;20480;-82
2021/07/20 08:54:59;;;;;;;10.30;6.32;;;22.30;97.30;;;;;;5068837;28;20719;-82
2021/07/20 08:57:56;;;;;;;14.25;7.18;;;22.40;97.20;;;;;;5074228;28;20089;-80
2021/07/20 09:00:26;;;;;;;12.18;6.72;;;22.20;98.10;;;;;;5087237;28;20039;-80
2021/07/20 09:03:16;;;;;;;11.68;6.88;;;22.50;97.90;;;;;;5089447;28;20364;-81
2021/07/20 09:05:47;;;;;;;14.95;7.28;;;22.50;97.90;;;;;;5089318;28;20023;-82
2021/07/20 09:08:35;;;;;;;14.00;7.03;;;22.40;97.70;;;;;;5089800;28;20061;-82
2021/07/20 09:11:11;;;;;;;16.52;7.68;;;22.00;97.90;;;;;;5078728;28;20039;-82
2021/07/20 09:13:40;;;;;;;14.95;7.35;;;21.90;98.10;;;;;;5091967;28;20020;-81
2021/07/20 09:16:29;;;;;;;10.50;7.05;;;21.90;97.90;;;;;;5095128;28;20020;-81
2021/07/20 09:19:00;;;;;;;12.07;6.80;;;21.90;97.80;;;;;;5103834;28;20042;-82
2021/07/20 09:21:29;;;;;;;17.25;7.55;;;22.30;98.10;;;;;;5106059;28;20353;-82
2021/07/20 09:24:14;;;;;;;15.73;7.90;;;22.50;96.80;;;;;;5084457;28;20016;-82
2021/07/20 09:26:46;;;;;;;13.75;8.07;;;22.80;96.50;;;;;;5090326;28;20015;-82
2021/07/20 09:29:19;;;;;;;16.77;8.23;;;22.90;96.40;;;;;;5086382;28;20429;-84
2021/07/20 09:31:45;;;;;;;14.70;7.78;;;22.60;97.10;;;;;;5088133;28;20032;-82
2021/07/20 09:34:48;;;;;;;15.68;8.00;;;22.80;96.50;;;;;;5093557;28;20042;-82
2021/07/20 09:37:29;;;;;;;18.70;8.27;;;23.20;96.20;;;;;;5089072;28;20031;-82
2021/07/20 09:40:39;;;;;;;15.23;7.38;;;23.30;95.80;;;;;;5052324;28;20028;-82
2021/07/20 09:43:13;;;;;;;15.45;7.07;;;23.50;95.40;;;;;;5093189;28;20016;-82
2021/07/20 09:45:44;;;;;;;11.45;7.10;;;23.40;95.70;;;;;;5092239;28;20031;-82
2021/07/20 09:48:28;;;;;;;11.95;6.93;;;23.60;95.60;;;;;;5096525;28;20020;-80
2021/07/20 09:51:24;;;;;;;16.52;7.82;;;23.80;95.40;;;;;;5086797;28;20020;-81
2021/07/20 09:54:14;;;;;;;13.32;6.97;;;23.60;95.00;;;;;;5102640;28;20486;-81
2021/07/20 09:56:47;;;;;;;13.27;7.22;;;23.30;95.80;;;;;;5114177;28;20476;-80
2021/07/20 09:59:43;;;;;;;15.23;8.05;;;23.50;95.60;;;;;;5091898;28;20040;-80
2021/07/20 10:02:43;;;;;;;14.95;8.20;;;23.60;94.90;;;;;;5072562;28;20025;-81
2021/07/20 10:05:11;;;;;;;15.52;8.55;;;24.10;94.60;;;;;;5069474;28;20029;-81
2021/07/20 10:07:54;;;;;;;13.82;8.52;;;23.60;94.70;;;;;;5071847;28;20349;-81
2021/07/20 10:10:22;;;;;;;12.40;8.10;;;23.60;94.70;;;;;;5089523;28;20105;-80
2021/07/20 10:13:12;;;;;;;14.32;8.93;;;23.40;94.80;;;;;;5091556;28;20492;-81
2021/07/20 10:16:02;;;;;;;15.65;8.60;;;23.40;95.40;;;;;;5065169;28;20063;-81
2021/07/20 10:18:41;;;;;;;14.38;8.60;;;23.80;94.70;;;;;;5092028;28;20019;-81
2021/07/20 10:21:11;;;;;;;13.25;8.45;;;24.00;94.00;;;;;;5108510;28;20027;-81
2021/07/20 10:23:44;;;;;;;13.90;8.55;;;24.30;94.70;;;;;;5088329;28;20055;-81
2021/07/20 10:26:15;;;;;;;12.30;7.85;;;24.50;93.50;;;;;;5069297;28;20353;-81
2021/07/20 10:29:14;;;;;;;14.55;8.45;;;24.70;94.10;;;;;;5050540;28;20481;-81
2021/07/20 10:31:59;;;;;;;13.40;8.45;;;24.50;93.70;;;;;;5075360;28;20069;-81
2021/07/20 10:34:27;;;;;;;15.60;8.88;;;24.30;93.50;;;;;;5081229;28;20027;-81
2021/07/20 10:37:23;;;;;;;13.57;7.88;;;24.10;93.30;;;;;;5106570;28;20074;-81
2021/07/20 10:39:51;;;;;;;13.57;8.02;;;23.90;93.90;;;;;;5081616;28;20044;-81
2021/07/20 10:42:44;;;;;;;13.90;8.32;;;24.30;94.20;;;;;;5085794;28;20023;-81
2021/07/20 10:45:14;;;;;;;15.23;8.43;;;24.10;93.60;;;;;;5092976;28;20027;-81
2021/07/20 10:47:45;;;;;;;15.48;9.07;;;23.90;93.50;;;;;;5094398;28;20065;-81
2021/07/20 10:50:26;;;;;;;15.80;9.35;;;24.00;93.70;;;;;;5074258;28;20024;-81
2021/07/20 10:53:19;;;;;;;17.77;8.07;;;24.10;93.50;;;;;;5098015;28;20024;-82
2021/07/20 10:56:02;;;;;;;16.17;8.52;;;24.70;92.90;;;;;;5096089;28;20626;-81
2021/07/20 10:58:46;;;;;;;13.35;8.82;;;24.70;93.40;;;;;;5095170;28;20105;-81
2021/07/20 11:01:25;;;;;;;13.77;8.55;;;24.50;92.50;;;;;;5077140;28;20035;-81
2021/07/20 11:04:19;;;;;;;16.25;8.82;;;24.70;92.40;;;;;;5078288;28;20035;-81
2021/07/20 11:06:47;;;;;;;18.60;9.43;;;24.70;91.70;;;;;;5093190;28;20073;-81
2021/07/20 11:09:19;;;;;;;14.52;8.35;;;25.10;91.00;;;;;;5092143;28;20125;-81
2021/07/20 11:11:52;;;;;;;14.60;9.15;;;25.30;91.60;;;;;;5070331;28;20074;-82
2021/07/20 11:14:24;;;;;;;15.52;8.85;;;24.90;92.70;;;;;;5095873;28;20508;-82
2021/07/20 11:16:50;;;;;;;14.77;8.80;;;25.00;92.20;;;;;;5097487;28;20078;-82
2021/07/20 11:19:17;;;;;;;16.00;8.57;;;25.60;91.30;;;;;;5082503;28;20115;-82
2021/07/20 11:21:44;;;;;;;14.85;8.15;;;25.70;90.60;;;;;;5079113;28;20529;-81
2021/07/20 11:24:13;;;;;;;14.30;8.25;;;25.50;90.70;;;;;;5077883;28;20495;-83
2021/07/20 11:26:39;;;;;;;14.82;8.75;;;25.30;90.70;;;;;;5093475;28;20015;-83
2021/07/20 11:29:05;;;;;;;16.98;8.48;;;25.00;90.20;;;;;;5094633;28;20063;-83
2021/07/20 11:31:42;;;;;;;13.88;8.13;;;25.20;90.80;;;;;;5072104;28;20184;-83
2021/07/20 11:34:13;;;;;;;13.27;8.32;;;25.70;90.60;;;;;;5085462;28;20045;-83
2021/07/20 11:36:41;;;;;;;14.20;8.02;;;26.00;90.30;;;;;;5080017;28;20027;-82
2021/07/20 11:39:10;;;;;;;12.77;7.72;;;26.40;89.30;;;;;;5083885;28;20036;-83
2021/07/20 11:42:02;;;;;;;11.45;7.22;;;26.60;86.70;;;;;;5080745;28;20341;-83
2021/07/20 11:44:47;;;;;;;13.27;8.55;;;26.70;86.50;;;;;;5081948;28;20518;-83
2021/07/20 11:47:19;;;;;;;15.13;7.68;;;27.10;85.90;;;;;;5093064;28;20024;-83
2021/07/20 11:49:53;;;;;;;11.68;7.82;;;27.00;86.80;;;;;;5077638;28;20020;-83
2021/07/20 11:52:28;;;;;;;10.77;7.22;;;27.10;84.20;;;;;;5073056;28;20024;-83
2021/07/20 11:55:00;;;;;;;13.60;8.65;;;27.30;80.80;;;;;;5077691;28;20434;-83
2021/07/20 11:57:59;;;;;;;14.73;8.85;;;27.50;84.30;;;;;;5093715;28;20028;-82
2021/07/20 12:00:28;;;;;;;10.85;7.85;;;27.10;85.10;;;;;;5075680;28;20032;-83
2021/07/20 12:03:15;;;;;;;14.52;8.55;;;26.70;84.80;;;;;;5072478;28;20463;-82
2021/07/20 12:06:14;;;;;;;17.15;8.73;;;26.90;85.60;;;;;;5093151;28;20095;-83
2021/07/20 12:08:49;;;;;;;12.75;8.52;;;26.60;84.20;;;;;;5097130;28;20020;-80
2021/07/20 12:11:20;;;;;;;13.50;8.00;;;26.40;82.90;;;;;;5096378;28;20019;-86
2021/07/20 12:13:47;;;;;;;13.05;7.93;;;26.50;83.20;;;;;;5099783;28;20024;-86
2021/07/20 12:16:14;;;;;;;15.70;8.55;;;26.50;86.00;;;;;;5082943;28;20016;-86
2021/07/20 12:18:49;;;;;;;15.23;8.43;;;27.20;84.30;;;;;;5103154;28;20016;-86
2021/07/20 12:21:18;;;;;;;13.27;7.93;;;27.60;83.00;;;;;;5092277;28;20031;-88
2021/07/20 12:23:44;;;;;;;12.55;7.93;;;28.00;81.20;;;;;;5100094;28;20043;-88
2021/07/20 12:26:11;;;;;;;13.25;8.80;;;28.10;80.20;;;;;;5099348;28;20539;-89
2021/07/20 12:28:44;;;;;;;13.07;8.75;;;28.00;81.30;;;;;;5093706;28;20522;-89
2021/07/20 12:31:12;;;;;;;12.63;8.07;;;28.20;79.70;;;;;;5084030;28;20066;-89
2021/07/20 12:33:41;;;;;;;12.55;8.32;;;28.40;79.30;;;;;;5097832;28;20027;-87
2021/07/20 12:36:07;;;;;;;12.85;7.85;;;28.30;78.50;;;;;;5080062;28;20107;-90
2021/07/20 12:38:34;;;;;;;12.40;8.23;;;28.60;77.90;;;;;;5095130;28;20089;-88
2021/07/20 12:41:11;;;;;;;12.55;8.10;;;28.60;76.80;;;;;;5075570;28;20016;-87
2021/07/20 12:43:44;;;;;;;11.20;7.78;;;28.80;76.80;;;;;;5096689;28;20028;-86
2021/07/20 12:46:20;;;;;;;13.27;8.55;;;29.10;76.50;;;;;;5096603;28;20027;-88
2021/07/20 12:48:51;;;;;;;12.85;7.90;;;28.80;74.60;;;;;;5095193;28;20039;-88
2021/07/20 12:51:19;;;;;;;11.70;7.53;;;28.40;73.90;;;;;;5093427;28;20028;-85
2021/07/20 12:53:47;;;;;;;12.55;8.07;;;28.40;75.50;;;;;;5077974;28;20039;-86
2021/07/20 12:56:18;;;;;;;11.52;7.97;;;28.50;74.50;;;;;;5096898;28;20491;-86